sensor_id;sensor_type;location;lat;lon;timestamp;pressure;altitude;pressure_sealevel;temperature;humidity
12219;BME280;6172;42.646;23.344;2023-09-19T00:00:17;94971.88;;;14.62;100.00
12219;BME280;6172;42.646;23.344;2023-09-19T00:02:46;94986.47;;;14.43;100.00
12219;BME280;6172;42.646;23.344;2023-09-19T00:05:13;94986.56;;;14.39;100.00
12219;BME280;6172;42.646;23.344;2023-09-19T00:07:40;94980.56;;;14.44;100.00
12219;BME280;6172;42.646;23.344;2023-09-19T00:10:07;94974.81;;;14.39;100.00
12219;BME280;6172;42.646;23.344;2023-09-19T00:12:36;94982.44;;;14.47;100.00
12219;BME280;6172;42.646;23.344;2023-09-19T00:15:05;94981.75;;;14.43;100.00
12219;BME280;6172;42.646;23.344;2023-09-19T00:17:32;94980.31;;;14.39;100.00
12219;BME280;6172;42.646;23.344;2023-09-19T00:20:00;94989.94;;;14.31;100.00
12219;BME280;6172;42.646;23.344;2023-09-19T00:22:39;94971.84;;;14.33;100.00
12219;BME280;6172;42.646;23.344;2023-09-19T00:25:07;94972.63;;;14.34;100.00
12219;BME280;6172;42.646;23.344;2023-09-19T00:27:35;94971.91;;;14.30;100.00
12219;BME280;6172;42.646;23.344;2023-09-19T00:30:08;94969.72;;;14.25;100.00
12219;BME280;6172;42.646;23.344;2023-09-19T00:32:40;94970.94;;;14.08;100.00
12219;BME280;6172;42.646;23.344;2023-09-19T00:35:07;94977.25;;;14.05;100.00
12219;BME280;6172;42.646;23.344;2023-09-19T00:37:36;94976.47;;;14.04;100.00
12219;BME280;6172;42.646;23.344;2023-09-19T00:40:03;94974.84;;;14.07;100.00
12219;BME280;6172;42.646;23.344;2023-09-19T00:42:31;94967.41;;;14.07;100.00
12219;BME280;6172;42.646;23.344;2023-09-19T00:44:59;94968.09;;;13.95;100.00
12219;BME280;6172;42.646;23.344;2023-09-19T00:47:30;94965.19;;;13.86;100.00
12219;BME280;6172;42.646;23.344;2023-09-19T00:49:57;94964.91;;;13.81;100.00
12219;BME280;6172;42.646;23.344;2023-09-19T00:52:25;94970.31;;;13.84;100.00
12219;BME280;6172;42.646;23.344;2023-09-19T00:54:52;94978.69;;;13.77;100.00
12219;BME280;6172;42.646;23.344;2023-09-19T00:57:20;94970.84;;;13.79;100.00
12219;BME280;6172;42.646;23.344;2023-09-19T00:59:50;94963.97;;;13.71;100.00
12219;BME280;6172;42.646;23.344;2023-09-19T01:02:21;94975.13;;;13.80;100.00
12219;BME280;6172;42.646;23.344;2023-09-19T01:04:49;94973.66;;;13.76;100.00
12219;BME280;6172;42.646;23.344;2023-09-19T01:10:03;94977.75;;;13.84;100.00
12219;BME280;6172;42.646;23.344;2023-09-19T01:12:42;94971.09;;;13.85;100.00
12219;BME280;6172;42.646;23.344;2023-09-19T01:15:15;94971.41;;;13.87;100.00
12219;BME280;6172;42.646;23.344;2023-09-19T01:17:47;94972.13;;;13.91;100.00
12219;BME280;6172;42.646;23.344;2023-09-19T01:20:24;94970.75;;;13.83;100.00
12219;BME280;6172;42.646;23.344;2023-09-19T01:23:02;94969.50;;;13.52;100.00
12219;BME280;6172;42.646;23.344;2023-09-19T01:25:57;94976.00;;;13.58;100.00
12219;BME280;6172;42.646;23.344;2023-09-19T01:28:32;94977.69;;;13.52;100.00
12219;BME280;6172;42.646;23.344;2023-09-19T01:31:09;94982.47;;;13.67;100.00
12219;BME280;6172;42.646;23.344;2023-09-19T01:33:57;94987.84;;;13.71;100.00
12219;BME280;6172;42.646;23.344;2023-09-19T01:36:25;94986.00;;;13.64;100.00
12219;BME280;6172;42.646;23.344;2023-09-19T01:38:53;94974.50;;;13.73;100.00
12219;BME280;6172;42.646;23.344;2023-09-19T01:41:26;94973.28;;;13.74;100.00
12219;BME280;6172;42.646;23.344;2023-09-19T01:43:59;94972.81;;;13.79;100.00
12219;BME280;6172;42.646;23.344;2023-09-19T01:46:35;94967.75;;;13.77;100.00
12219;BME280;6172;42.646;23.344;2023-09-19T01:49:14;94971.16;;;13.81;100.00
12219;BME280;6172;42.646;23.344;2023-09-19T01:51:52;94969.69;;;13.77;100.00
12219;BME280;6172;42.646;23.344;2023-09-19T01:54:30;94977.88;;;13.61;100.00
12219;BME280;6172;42.646;23.344;2023-09-19T01:57:04;94981.19;;;13.52;100.00
12219;BME280;6172;42.646;23.344;2023-09-19T01:59:37;94977.88;;;13.61;100.00
12219;BME280;6172;42.646;23.344;2023-09-19T02:02:10;94987.28;;;13.60;100.00
12219;BME280;6172;42.646;23.344;2023-09-19T02:04:41;94993.78;;;13.69;100.00
12219;BME280;6172;42.646;23.344;2023-09-19T02:07:08;94998.78;;;13.71;100.00
12219;BME280;6172;42.646;23.344;2023-09-19T02:09:35;94993.03;;;13.65;100.00
12219;BME280;6172;42.646;23.344;2023-09-19T02:12:05;94988.50;;;13.59;100.00
12219;BME280;6172;42.646;23.344;2023-09-19T02:14:32;94982.03;;;13.49;100.00
12219;BME280;6172;42.646;23.344;2023-09-19T02:17:00;94991.19;;;13.43;100.00
12219;BME280;6172;42.646;23.344;2023-09-19T02:19:29;94987.09;;;13.35;100.00
12219;BME280;6172;42.646;23.344;2023-09-19T02:21:57;94984.72;;;13.53;100.00
12219;BME280;6172;42.646;23.344;2023-09-19T02:24:28;94990.03;;;13.60;100.00
12219;BME280;6172;42.646;23.344;2023-09-19T02:27:28;94993.41;;;13.48;100.00
12219;BME280;6172;42.646;23.344;2023-09-19T02:29:55;94986.50;;;13.43;100.00
12219;BME280;6172;42.646;23.344;2023-09-19T02:32:23;94989.66;;;13.42;100.00
12219;BME280;6172;42.646;23.344;2023-09-19T02:34:51;94983.72;;;13.08;100.00
12219;BME280;6172;42.646;23.344;2023-09-19T02:37:19;94978.25;;;13.08;100.00
12219;BME280;6172;42.646;23.344;2023-09-19T02:39:46;94970.34;;;13.13;100.00
12219;BME280;6172;42.646;23.344;2023-09-19T02:42:13;94976.63;;;13.30;100.00
12219;BME280;6172;42.646;23.344;2023-09-19T02:44:40;94959.72;;;13.35;100.00
12219;BME280;6172;42.646;23.344;2023-09-19T02:47:07;94966.50;;;13.46;100.00
12219;BME280;6172;42.646;23.344;2023-09-19T02:49:34;94955.34;;;13.37;100.00
12219;BME280;6172;42.646;23.344;2023-09-19T02:52:04;94957.13;;;13.44;100.00
12219;BME280;6172;42.646;23.344;2023-09-19T02:54:32;94956.72;;;13.45;100.00
12219;BME280;6172;42.646;23.344;2023-09-19T02:56:59;94957.25;;;13.21;100.00
12219;BME280;6172;42.646;23.344;2023-09-19T02:59:29;94958.47;;;13.20;100.00
12219;BME280;6172;42.646;23.344;2023-09-19T03:01:56;94947.97;;;12.79;100.00
12219;BME280;6172;42.646;23.344;2023-09-19T03:04:25;94956.44;;;12.85;100.00
12219;BME280;6172;42.646;23.344;2023-09-19T03:06:52;94953.44;;;12.99;100.00
12219;BME280;6172;42.646;23.344;2023-09-19T03:09:25;94949.84;;;13.02;100.00
12219;BME280;6172;42.646;23.344;2023-09-19T03:11:52;94945.13;;;13.02;100.00
12219;BME280;6172;42.646;23.344;2023-09-19T03:14:19;94938.81;;;13.05;100.00
12219;BME280;6172;42.646;23.344;2023-09-19T03:16:49;94939.50;;;13.09;100.00
12219;BME280;6172;42.646;23.344;2023-09-19T03:19:17;94939.28;;;13.20;100.00
12219;BME280;6172;42.646;23.344;2023-09-19T03:21:46;94947.66;;;12.93;100.00
12219;BME280;6172;42.646;23.344;2023-09-19T03:24:15;94947.41;;;12.88;100.00
12219;BME280;6172;42.646;23.344;2023-09-19T03:26:43;94941.31;;;12.80;100.00
12219;BME280;6172;42.646;23.344;2023-09-19T03:29:10;94942.34;;;12.86;100.00
12219;BME280;6172;42.646;23.344;2023-09-19T03:31:38;94954.00;;;12.90;100.00
12219;BME280;6172;42.646;23.344;2023-09-19T03:34:05;94950.50;;;12.90;100.00
12219;BME280;6172;42.646;23.344;2023-09-19T03:36:33;94938.72;;;12.93;100.00
12219;BME280;6172;42.646;23.344;2023-09-19T03:39:00;94942.25;;;12.50;100.00
12219;BME280;6172;42.646;23.344;2023-09-19T03:41:30;94939.19;;;12.48;100.00
12219;BME280;6172;42.646;23.344;2023-09-19T03:43:59;94953.69;;;12.45;100.00
12219;BME280;6172;42.646;23.344;2023-09-19T03:46:27;94964.00;;;12.57;100.00
12219;BME280;6172;42.646;23.344;2023-09-19T03:48:55;94956.50;;;12.38;100.00
12219;BME280;6172;42.646;23.344;2023-09-19T03:51:24;94959.16;;;12.45;100.00
12219;BME280;6172;42.646;23.344;2023-09-19T03:53:51;94963.44;;;12.66;100.00
12219;BME280;6172;42.646;23.344;2023-09-19T03:56:18;94968.44;;;12.71;100.00
12219;BME280;6172;42.646;23.344;2023-09-19T03:58:45;94969.69;;;12.66;100.00
12219;BME280;6172;42.646;23.344;2023-09-19T04:01:14;94974.75;;;12.68;100.00
12219;BME280;6172;42.646;23.344;2023-09-19T04:03:42;94978.13;;;12.76;100.00
12219;BME280;6172;42.646;23.344;2023-09-19T04:06:13;94974.56;;;12.79;100.00
12219;BME280;6172;42.646;23.344;2023-09-19T04:08:40;94966.69;;;12.81;100.00
12219;BME280;6172;42.646;23.344;2023-09-19T04:11:09;94979.09;;;12.85;100.00
12219;BME280;6172;42.646;23.344;2023-09-19T04:13:37;94974.13;;;12.80;100.00
12219;BME280;6172;42.646;23.344;2023-09-19T04:16:04;94982.97;;;12.88;100.00
12219;BME280;6172;42.646;23.344;2023-09-19T04:18:33;94991.16;;;12.88;100.00
12219;BME280;6172;42.646;23.344;2023-09-19T04:21:04;94984.53;;;12.89;100.00
12219;BME280;6172;42.646;23.344;2023-09-19T04:23:31;94989.22;;;12.88;100.00
12219;BME280;6172;42.646;23.344;2023-09-19T04:25:58;94986.97;;;13.03;100.00
12219;BME280;6172;42.646;23.344;2023-09-19T04:28:26;94988.84;;;13.06;100.00
12219;BME280;6172;42.646;23.344;2023-09-19T04:30:54;94989.63;;;13.06;100.00
12219;BME280;6172;42.646;23.344;2023-09-19T04:33:22;94986.59;;;13.20;100.00
12219;BME280;6172;42.646;23.344;2023-09-19T04:35:50;94967.28;;;13.27;100.00
12219;BME280;6172;42.646;23.344;2023-09-19T04:38:18;94970.34;;;13.29;100.00
12219;BME280;6172;42.646;23.344;2023-09-19T04:40:45;94960.88;;;13.34;100.00
12219;BME280;6172;42.646;23.344;2023-09-19T04:43:12;94967.41;;;13.40;100.00
12219;BME280;6172;42.646;23.344;2023-09-19T04:45:40;94966.56;;;13.43;100.00
12219;BME280;6172;42.646;23.344;2023-09-19T04:48:07;94967.44;;;13.56;100.00
12219;BME280;6172;42.646;23.344;2023-09-19T04:50:36;94967.13;;;13.34;100.00
12219;BME280;6172;42.646;23.344;2023-09-19T04:53:05;94962.28;;;13.42;100.00
12219;BME280;6172;42.646;23.344;2023-09-19T04:55:32;94974.66;;;13.11;100.00
12219;BME280;6172;42.646;23.344;2023-09-19T04:57:59;94960.38;;;12.84;100.00
12219;BME280;6172;42.646;23.344;2023-09-19T05:00:26;94972.38;;;12.90;100.00
12219;BME280;6172;42.646;23.344;2023-09-19T05:02:56;94957.56;;;13.07;100.00
12219;BME280;6172;42.646;23.344;2023-09-19T05:05:23;94948.78;;;13.15;100.00
12219;BME280;6172;42.646;23.344;2023-09-19T05:07:54;94950.25;;;13.20;100.00
12219;BME280;6172;42.646;23.344;2023-09-19T05:10:24;94951.06;;;13.36;100.00
12219;BME280;6172;42.646;23.344;2023-09-19T05:12:53;94955.28;;;13.21;100.00
12219;BME280;6172;42.646;23.344;2023-09-19T05:15:20;94958.88;;;13.18;100.00
12219;BME280;6172;42.646;23.344;2023-09-19T05:17:50;94960.88;;;13.34;100.00
12219;BME280;6172;42.646;23.344;2023-09-19T05:20:20;94957.75;;;13.51;100.00
12219;BME280;6172;42.646;23.344;2023-09-19T05:22:52;94947.63;;;13.84;100.00
12219;BME280;6172;42.646;23.344;2023-09-19T05:25:25;94941.09;;;14.10;100.00
12219;BME280;6172;42.646;23.344;2023-09-19T05:27:56;94937.69;;;14.50;100.00
12219;BME280;6172;42.646;23.344;2023-09-19T05:30:24;94928.94;;;15.25;100.00
12219;BME280;6172;42.646;23.344;2023-09-19T05:32:53;94920.09;;;16.30;100.00
12219;BME280;6172;42.646;23.344;2023-09-19T05:35:24;94911.03;;;17.90;100.00
12219;BME280;6172;42.646;23.344;2023-09-19T05:37:51;94898.13;;;18.80;100.00
12219;BME280;6172;42.646;23.344;2023-09-19T05:40:19;94885.00;;;19.44;100.00
12219;BME280;6172;42.646;23.344;2023-09-19T05:42:47;94894.06;;;19.77;100.00
12219;BME280;6172;42.646;23.344;2023-09-19T05:45:16;94894.88;;;21.39;99.43
12219;BME280;6172;42.646;23.344;2023-09-19T05:47:47;94883.41;;;21.60;93.29
12219;BME280;6172;42.646;23.344;2023-09-19T05:50:16;94891.00;;;19.75;100.00
12219;BME280;6172;42.646;23.344;2023-09-19T05:52:51;94884.44;;;19.96;100.00
12219;BME280;6172;42.646;23.344;2023-09-19T05:55:18;94885.78;;;19.35;100.00
12219;BME280;6172;42.646;23.344;2023-09-19T05:57:51;94900.09;;;18.35;100.00
12219;BME280;6172;42.646;23.344;2023-09-19T06:00:25;94898.72;;;18.30;100.00
12219;BME280;6172;42.646;23.344;2023-09-19T06:02:53;94889.06;;;18.44;100.00
12219;BME280;6172;42.646;23.344;2023-09-19T06:05:20;94885.41;;;18.56;100.00
12219;BME280;6172;42.646;23.344;2023-09-19T06:07:47;94885.09;;;18.45;100.00
12219;BME280;6172;42.646;23.344;2023-09-19T06:10:16;94881.94;;;19.33;100.00
12219;BME280;6172;42.646;23.344;2023-09-19T06:12:43;94884.97;;;18.66;100.00
12219;BME280;6172;42.646;23.344;2023-09-19T06:15:15;94882.59;;;18.29;100.00
12219;BME280;6172;42.646;23.344;2023-09-19T06:17:47;94884.19;;;18.66;100.00
12219;BME280;6172;42.646;23.344;2023-09-19T06:20:14;94878.94;;;19.54;100.00
12219;BME280;6172;42.646;23.344;2023-09-19T06:22:42;94873.78;;;20.13;100.00
12219;BME280;6172;42.646;23.344;2023-09-19T06:25:10;94882.81;;;20.60;100.00
12219;BME280;6172;42.646;23.344;2023-09-19T06:27:41;94873.44;;;20.96;98.29
12219;BME280;6172;42.646;23.344;2023-09-19T06:30:12;94867.44;;;21.26;95.97
12219;BME280;6172;42.646;23.344;2023-09-19T06:32:39;94872.75;;;22.23;83.71
12219;BME280;6172;42.646;23.344;2023-09-19T06:35:09;94867.56;;;22.30;81.66
12219;BME280;6172;42.646;23.344;2023-09-19T06:37:44;94864.16;;;22.06;82.96
12219;BME280;6172;42.646;23.344;2023-09-19T06:40:11;94864.00;;;21.17;88.58
12219;BME280;6172;42.646;23.344;2023-09-19T06:42:43;94868.28;;;21.47;88.90
12219;BME280;6172;42.646;23.344;2023-09-19T06:45:13;94874.31;;;21.60;87.43
12219;BME280;6172;42.646;23.344;2023-09-19T06:47:43;94871.28;;;22.07;84.68
12219;BME280;6172;42.646;23.344;2023-09-19T06:50:10;94877.91;;;21.95;85.38
12219;BME280;6172;42.646;23.344;2023-09-19T06:52:39;94871.06;;;20.65;93.45
12219;BME280;6172;42.646;23.344;2023-09-19T06:55:06;94879.88;;;20.78;96.14
12219;BME280;6172;42.646;23.344;2023-09-19T06:57:35;94883.50;;;19.07;100.00
12219;BME280;6172;42.646;23.344;2023-09-19T07:00:02;94875.88;;;18.93;100.00
12219;BME280;6172;42.646;23.344;2023-09-19T07:02:35;94884.34;;;19.49;100.00
12219;BME280;6172;42.646;23.344;2023-09-19T07:05:02;94880.88;;;19.30;100.00
12219;BME280;6172;42.646;23.344;2023-09-19T07:07:30;94879.75;;;19.37;100.00
12219;BME280;6172;42.646;23.344;2023-09-19T07:10:00;94888.78;;;18.60;100.00
12219;BME280;6172;42.646;23.344;2023-09-19T07:12:27;94892.28;;;18.96;100.00
12219;BME280;6172;42.646;23.344;2023-09-19T07:14:54;94882.31;;;18.54;100.00
12219;BME280;6172;42.646;23.344;2023-09-19T07:17:21;94890.31;;;18.61;100.00
12219;BME280;6172;42.646;23.344;2023-09-19T07:19:51;94898.56;;;18.25;100.00
12219;BME280;6172;42.646;23.344;2023-09-19T07:22:18;94897.09;;;18.02;100.00
12219;BME280;6172;42.646;23.344;2023-09-19T07:24:45;94901.56;;;18.18;100.00
12219;BME280;6172;42.646;23.344;2023-09-19T07:27:15;94894.25;;;18.33;100.00
12219;BME280;6172;42.646;23.344;2023-09-19T07:29:42;94896.34;;;18.11;100.00
12219;BME280;6172;42.646;23.344;2023-09-19T07:32:09;94895.44;;;18.05;100.00
12219;BME280;6172;42.646;23.344;2023-09-19T07:34:37;94894.91;;;18.46;100.00
12219;BME280;6172;42.646;23.344;2023-09-19T07:37:07;94900.84;;;18.35;100.00
12219;BME280;6172;42.646;23.344;2023-09-19T07:39:35;94895.03;;;18.33;100.00
12219;BME280;6172;42.646;23.344;2023-09-19T07:42:02;94896.47;;;17.80;100.00
12219;BME280;6172;42.646;23.344;2023-09-19T07:44:29;94895.44;;;18.05;100.00
12219;BME280;6172;42.646;23.344;2023-09-19T07:46:57;94904.53;;;18.23;100.00
12219;BME280;6172;42.646;23.344;2023-09-19T07:49:23;94900.34;;;18.10;100.00
12219;BME280;6172;42.646;23.344;2023-09-19T07:51:51;94889.78;;;18.08;100.00
12219;BME280;6172;42.646;23.344;2023-09-19T07:54:21;94901.78;;;18.23;100.00
12219;BME280;6172;42.646;23.344;2023-09-19T07:56:48;94890.28;;;18.25;100.00
12219;BME280;6172;42.646;23.344;2023-09-19T07:59:15;94894.16;;;18.63;100.00
12219;BME280;6172;42.646;23.344;2023-09-19T08:01:42;94904.56;;;18.77;100.00
12219;BME280;6172;42.646;23.344;2023-09-19T08:04:15;94904.84;;;19.06;100.00
12219;BME280;6172;42.646;23.344;2023-09-19T08:06:43;94899.91;;;19.19;100.00
12219;BME280;6172;42.646;23.344;2023-09-19T08:09:11;94898.22;;;19.13;100.00
12219;BME280;6172;42.646;23.344;2023-09-19T08:11:47;94889.41;;;18.46;100.00
12219;BME280;6172;42.646;23.344;2023-09-19T08:14:15;94888.78;;;18.60;100.00
12219;BME280;6172;42.646;23.344;2023-09-19T08:16:42;94883.38;;;19.01;100.00
12219;BME280;6172;42.646;23.344;2023-09-19T08:19:10;94882.00;;;18.97;100.00
12219;BME280;6172;42.646;23.344;2023-09-19T08:21:37;94880.75;;;19.25;100.00
12219;BME280;6172;42.646;23.344;2023-09-19T08:24:05;94868.75;;;19.28;100.00
12219;BME280;6172;42.646;23.344;2023-09-19T08:26:32;94861.78;;;18.91;100.00
12219;BME280;6172;42.646;23.344;2023-09-19T08:29:05;94870.66;;;18.86;100.00
12219;BME280;6172;42.646;23.344;2023-09-19T08:31:35;94857.91;;;18.88;100.00
12219;BME280;6172;42.646;23.344;2023-09-19T08:34:02;94861.66;;;19.36;100.00
12219;BME280;6172;42.646;23.344;2023-09-19T08:36:29;94868.09;;;19.42;100.00
12219;BME280;6172;42.646;23.344;2023-09-19T08:38:57;94877.00;;;19.79;100.00
12219;BME280;6172;42.646;23.344;2023-09-19T08:41:25;94864.31;;;19.96;100.00
12219;BME280;6172;42.646;23.344;2023-09-19T08:43:53;94876.22;;;20.11;100.00
12219;BME280;6172;42.646;23.344;2023-09-19T08:46:24;94872.63;;;19.96;100.00
12219;BME280;6172;42.646;23.344;2023-09-19T08:48:58;94871.88;;;19.86;100.00
12219;BME280;6172;42.646;23.344;2023-09-19T08:51:36;94860.41;;;20.11;100.00
12219;BME280;6172;42.646;23.344;2023-09-19T08:54:07;94864.38;;;20.57;100.00
12219;BME280;6172;42.646;23.344;2023-09-19T08:56:35;94863.81;;;20.06;100.00
12219;BME280;6172;42.646;23.344;2023-09-19T08:59:06;94854.72;;;20.53;100.00
12219;BME280;6172;42.646;23.344;2023-09-19T09:01:35;94856.44;;;20.50;100.00
12219;BME280;6172;42.646;23.344;2023-09-19T09:04:03;94847.59;;;20.75;100.00
12219;BME280;6172;42.646;23.344;2023-09-19T09:06:34;94854.69;;;20.76;100.00
12219;BME280;6172;42.646;23.344;2023-09-19T09:09:03;94840.09;;;20.52;100.00
12219;BME280;6172;42.646;23.344;2023-09-19T09:11:34;94846.81;;;20.60;100.00
12219;BME280;6172;42.646;23.344;2023-09-19T09:14:02;94840.84;;;20.91;100.00
12219;BME280;6172;42.646;23.344;2023-09-19T09:16:30;94849.19;;;21.20;99.96
12219;BME280;6172;42.646;23.344;2023-09-19T09:18:58;94843.47;;;21.23;98.89
12219;BME280;6172;42.646;23.344;2023-09-19T09:21:26;94849.25;;;21.40;96.87
12219;BME280;6172;42.646;23.344;2023-09-19T09:23:53;94838.41;;;21.22;97.41
12219;BME280;6172;42.646;23.344;2023-09-19T09:29:07;94833.97;;;21.30;95.96
12219;BME280;6172;42.646;23.344;2023-09-19T09:34:52;94830.44;;;21.44;93.27
12219;BME280;6172;42.646;23.344;2023-09-19T09:37:30;94831.69;;;21.57;92.48
12219;BME280;6172;42.646;23.344;2023-09-19T09:40:14;94818.44;;;21.03;96.81
12219;BME280;6172;42.646;23.344;2023-09-19T09:43:02;94822.41;;;21.60;93.03
12219;BME280;6172;42.646;23.344;2023-09-19T09:45:30;94808.16;;;22.08;87.46
12219;BME280;6172;42.646;23.344;2023-09-19T09:48:03;94811.59;;;21.97;90.49
12219;BME280;6172;42.646;23.344;2023-09-19T09:50:34;94810.84;;;22.82;84.01
12219;BME280;6172;42.646;23.344;2023-09-19T09:53:30;94805.59;;;23.10;81.12
12219;BME280;6172;42.646;23.344;2023-09-19T09:56:17;94798.34;;;23.85;73.82
12219;BME280;6172;42.646;23.344;2023-09-19T09:58:51;94789.59;;;23.61;71.98
12219;BME280;6172;42.646;23.344;2023-09-19T10:01:49;94789.03;;;22.95;76.47
12219;BME280;6172;42.646;23.344;2023-09-19T10:04:29;94789.13;;;23.06;78.30
12219;BME280;6172;42.646;23.344;2023-09-19T10:07:31;94800.28;;;23.43;76.24
12219;BME280;6172;42.646;23.344;2023-09-19T10:10:05;94796.66;;;22.55;81.46
12219;BME280;6172;42.646;23.344;2023-09-19T10:12:52;94791.91;;;22.61;82.19
12219;BME280;6172;42.646;23.344;2023-09-19T10:15:32;94798.53;;;22.63;81.46
12219;BME280;6172;42.646;23.344;2023-09-19T10:18:07;94795.47;;;21.81;89.83
12219;BME280;6172;42.646;23.344;2023-09-19T10:28:38;94784.91;;;21.50;95.23
12219;BME280;6172;42.646;23.344;2023-09-19T10:31:06;94794.44;;;21.15;98.79
12219;BME280;6172;42.646;23.344;2023-09-19T10:33:40;94793.75;;;21.05;99.29
12219;BME280;6172;42.646;23.344;2023-09-19T10:36:11;94787.59;;;20.72;100.00
12219;BME280;6172;42.646;23.344;2023-09-19T10:38:43;94784.75;;;21.39;95.85
12219;BME280;6172;42.646;23.344;2023-09-19T10:41:14;94784.59;;;21.63;95.56
12219;BME280;6172;42.646;23.344;2023-09-19T10:43:45;94783.81;;;21.28;96.43
12219;BME280;6172;42.646;23.344;2023-09-19T10:46:14;94776.13;;;21.37;96.85
12219;BME280;6172;42.646;23.344;2023-09-19T10:49:01;94777.75;;;21.78;92.25
12219;BME280;6172;42.646;23.344;2023-09-19T10:51:31;94775.13;;;21.69;92.80
12219;BME280;6172;42.646;23.344;2023-09-19T10:54:06;94772.91;;;21.73;93.14
12219;BME280;6172;42.646;23.344;2023-09-19T10:56:38;94762.50;;;21.68;93.08
12219;BME280;6172;42.646;23.344;2023-09-19T11:02:27;94761.00;;;22.28;86.91
12219;BME280;6172;42.646;23.344;2023-09-19T11:05:11;94768.97;;;22.20;88.49
12219;BME280;6172;42.646;23.344;2023-09-19T11:07:56;94758.22;;;22.28;86.28
12219;BME280;6172;42.646;23.344;2023-09-19T11:10:44;94751.47;;;22.54;84.38
12219;BME280;6172;42.646;23.344;2023-09-19T11:13:24;94758.56;;;22.15;87.31
12219;BME280;6172;42.646;23.344;2023-09-19T11:16:23;94752.91;;;22.50;83.35
12219;BME280;6172;42.646;23.344;2023-09-19T11:19:07;94746.78;;;22.66;82.44
12219;BME280;6172;42.646;23.344;2023-09-19T11:21:52;94740.63;;;22.82;81.16
12219;BME280;6172;42.646;23.344;2023-09-19T11:24:34;94739.91;;;22.87;80.09
12219;BME280;6172;42.646;23.344;2023-09-19T11:27:11;94741.47;;;23.19;77.88
12219;BME280;6172;42.646;23.344;2023-09-19T11:29:43;94738.97;;;22.95;79.02
12219;BME280;6172;42.646;23.344;2023-09-19T11:41:41;94725.31;;;22.41;82.55
12219;BME280;6172;42.646;23.344;2023-09-19T11:44:33;94722.16;;;22.53;81.13
12219;BME280;6172;42.646;23.344;2023-09-19T11:47:06;94708.09;;;22.17;85.54
12219;BME280;6172;42.646;23.344;2023-09-19T11:49:35;94708.94;;;22.23;85.30
12219;BME280;6172;42.646;23.344;2023-09-19T11:52:08;94697.09;;;22.48;83.75
12219;BME280;6172;42.646;23.344;2023-09-19T11:54:37;94685.53;;;22.55;84.52
12219;BME280;6172;42.646;23.344;2023-09-19T11:57:10;94688.56;;;22.51;81.73
12219;BME280;6172;42.646;23.344;2023-09-19T11:59:39;94691.66;;;22.13;86.20
12219;BME280;6172;42.646;23.344;2023-09-19T12:02:07;94699.53;;;21.74;90.19
12219;BME280;6172;42.646;23.344;2023-09-19T12:04:41;94693.22;;;21.74;92.25
12219;BME280;6172;42.646;23.344;2023-09-19T12:09:47;94697.53;;;22.21;88.99
12219;BME280;6172;42.646;23.344;2023-09-19T12:12:22;94680.09;;;22.66;83.94
12219;BME280;6172;42.646;23.344;2023-09-19T12:14:53;94666.53;;;22.48;85.71
12219;BME280;6172;42.646;23.344;2023-09-19T12:17:35;94676.72;;;22.56;85.54
12219;BME280;6172;42.646;23.344;2023-09-19T12:20:02;94677.78;;;22.90;83.40
12219;BME280;6172;42.646;23.344;2023-09-19T12:22:41;94665.69;;;22.62;84.09
12219;BME280;6172;42.646;23.344;2023-09-19T12:25:09;94668.38;;;22.56;84.40
12219;BME280;6172;42.646;23.344;2023-09-19T12:27:43;94670.06;;;22.23;89.82
12219;BME280;6172;42.646;23.344;2023-09-19T12:30:12;94657.59;;;22.64;85.98
12219;BME280;6172;42.646;23.344;2023-09-19T12:32:41;94660.63;;;22.60;85.75
12219;BME280;6172;42.646;23.344;2023-09-19T12:35:09;94654.03;;;23.25;81.53
12219;BME280;6172;42.646;23.344;2023-09-19T12:37:43;94647.56;;;23.39;80.01
12219;BME280;6172;42.646;23.344;2023-09-19T12:40:18;94653.06;;;23.76;77.33
12219;BME280;6172;42.646;23.344;2023-09-19T12:42:58;94647.38;;;24.18;72.69
12219;BME280;6172;42.646;23.344;2023-09-19T12:45:42;94641.13;;;24.40;71.03
12219;BME280;6172;42.646;23.344;2023-09-19T12:48:21;94645.91;;;23.64;76.67
12219;BME280;6172;42.646;23.344;2023-09-19T12:51:04;94643.31;;;23.49;77.43
12219;BME280;6172;42.646;23.344;2023-09-19T12:53:34;94645.03;;;23.47;76.64
12219;BME280;6172;42.646;23.344;2023-09-19T12:56:06;94639.66;;;23.80;74.63
12219;BME280;6172;42.646;23.344;2023-09-19T12:58:48;94640.91;;;23.73;75.54
12219;BME280;6172;42.646;23.344;2023-09-19T13:01:15;94647.59;;;23.98;74.30
12219;BME280;6172;42.646;23.344;2023-09-19T13:03:43;94631.88;;;23.89;72.21
12219;BME280;6172;42.646;23.344;2023-09-19T13:06:15;94630.78;;;23.76;74.83
12219;BME280;6172;42.646;23.344;2023-09-19T13:09:10;94625.59;;;24.11;71.92
12219;BME280;6172;42.646;23.344;2023-09-19T13:11:40;94628.44;;;24.28;71.24
12219;BME280;6172;42.646;23.344;2023-09-19T13:14:23;94616.81;;;24.46;69.17
12219;BME280;6172;42.646;23.344;2023-09-19T13:20:21;94620.34;;;24.41;69.87
12219;BME280;6172;42.646;23.344;2023-09-19T13:22:50;94616.06;;;24.51;69.88
12219;BME280;6172;42.646;23.344;2023-09-19T13:25:21;94616.06;;;24.73;68.42
12219;BME280;6172;42.646;23.344;2023-09-19T13:27:49;94612.50;;;24.83;67.39
12219;BME280;6172;42.646;23.344;2023-09-19T13:30:20;94606.66;;;24.87;66.95
12219;BME280;6172;42.646;23.344;2023-09-19T13:32:48;94603.38;;;24.88;66.35
12219;BME280;6172;42.646;23.344;2023-09-19T13:35:18;94588.69;;;24.99;64.87
12219;BME280;6172;42.646;23.344;2023-09-19T13:37:47;94591.72;;;24.95;65.27
12219;BME280;6172;42.646;23.344;2023-09-19T13:40:17;94599.81;;;24.82;65.91
12219;BME280;6172;42.646;23.344;2023-09-19T13:42:44;94606.91;;;24.83;66.11
12219;BME280;6172;42.646;23.344;2023-09-19T13:45:11;94595.78;;;24.67;66.39
12219;BME280;6172;42.646;23.344;2023-09-19T13:47:52;94598.84;;;24.74;66.61